Time;durP1;ratioP1;P1;durP2;ratioP2;P2;SDS_P1;SDS_P2;PMS_P1;PMS_P2;Temp;Humidity;BMP_temperature;BMP_pressure;BME280_temperature;BME280_humidity;BME280_pressure;Samples;Min_cycle;Max_cycle;Signal;HPM_P1;HPM_P2
2022/10/23 00:00:54;;;;;;;11.60;3.30;;;15.10;99.90;;;;;;5075038;28;20494;-61
2022/10/23 00:03:21;;;;;;;10.68;2.92;;;15.10;99.90;;;;;;5076595;28;20072;-61
2022/10/23 00:05:48;;;;;;;12.40;3.25;;;15.10;99.90;;;;;;5076006;28;20080;-62
2022/10/23 00:08:14;;;;;;;9.73;2.47;;;15.10;99.90;;;;;;5075754;28;20045;-61
2022/10/23 00:10:41;;;;;;;11.90;3.65;;;15.10;99.90;;;;;;5075811;28;20078;-65
2022/10/23 00:13:08;;;;;;;10.55;2.80;;;15.10;99.90;;;;;;5075949;28;20396;-61
2022/10/23 00:15:34;;;;;;;11.32;2.95;;;15.10;99.90;;;;;;5075809;28;20036;-60
2022/10/23 00:18:01;;;;;;;12.07;3.10;;;15.10;99.90;;;;;;5075972;28;20041;-62
2022/10/23 00:20:28;;;;;;;12.50;4.10;;;15.10;99.90;;;;;;5075840;28;20048;-62
2022/10/23 00:22:55;;;;;;;13.80;3.40;;;15.10;99.90;;;;;;5076114;28;20488;-61
2022/10/23 00:25:21;;;;;;;12.27;3.00;;;15.10;99.90;;;;;;5075718;28;20049;-64
2022/10/23 00:27:48;;;;;;;12.70;2.65;;;15.10;99.90;;;;;;5075618;28;20037;-62
2022/10/23 00:30:15;;;;;;;13.90;3.25;;;15.10;99.90;;;;;;5057659;28;20075;-61
2022/10/23 00:32:42;;;;;;;15.25;3.65;;;15.10;99.90;;;;;;5074532;28;20041;-61
2022/10/23 00:35:08;;;;;;;12.80;2.95;;;15.10;99.90;;;;;;5075570;28;20090;-64
2022/10/23 00:37:35;;;;;;;11.50;3.08;;;15.10;99.90;;;;;;5075728;28;20134;-63
2022/10/23 00:40:02;;;;;;;11.63;3.13;;;15.10;99.90;;;;;;5075870;28;20036;-62
2022/10/23 00:42:29;;;;;;;12.10;3.05;;;15.10;99.90;;;;;;5074236;28;20583;-60
2022/10/23 00:44:55;;;;;;;13.00;3.45;;;15.10;99.90;;;;;;5075454;28;20071;-59
2022/10/23 00:47:22;;;;;;;14.75;3.25;;;15.10;99.90;;;;;;5057537;28;20052;-62
2022/10/23 00:49:49;;;;;;;12.85;2.72;;;15.10;99.90;;;;;;5074768;28;20552;-64
2022/10/23 00:52:15;;;;;;;15.90;2.90;;;15.10;99.90;;;;;;5075345;28;20447;-63
2022/10/23 00:54:42;;;;;;;11.32;2.50;;;15.10;99.90;;;;;;5074301;28;20158;-60
2022/10/23 00:57:09;;;;;;;10.13;2.90;;;15.10;99.90;;;;;;5075017;28;20127;-62
2022/10/23 00:59:36;;;;;;;10.15;2.72;;;15.10;99.90;;;;;;5075296;28;20040;-63
2022/10/23 01:02:02;;;;;;;11.25;3.38;;;15.10;99.90;;;;;;5075456;28;20451;-63
2022/10/23 01:04:29;;;;;;;11.05;3.30;;;15.10;99.90;;;;;;5074884;28;20080;-61
2022/10/23 01:06:56;;;;;;;8.40;2.70;;;15.10;99.90;;;;;;5073569;28;20052;-61
2022/10/23 01:09:24;;;;;;;13.25;2.90;;;15.10;99.90;;;;;;5075010;28;20452;-62
2022/10/23 01:11:52;;;;;;;13.32;2.70;;;15.10;99.90;;;;;;5073426;28;20036;-62
2022/10/23 01:14:18;;;;;;;12.52;2.63;;;15.10;99.90;;;;;;5073706;28;20040;-63
2022/10/23 01:16:45;;;;;;;10.75;2.88;;;15.10;99.90;;;;;;5073577;28;20408;-63
2022/10/23 01:19:12;;;;;;;14.82;3.22;;;15.10;99.90;;;;;;5073925;28;20048;-61
2022/10/23 01:21:39;;;;;;;13.77;2.45;;;15.10;99.90;;;;;;5074156;28;20064;-62
2022/10/23 01:24:07;;;;;;;10.90;3.45;;;15.10;99.90;;;;;;5073338;28;20055;-63
2022/10/23 01:26:34;;;;;;;12.35;3.58;;;15.10;99.90;;;;;;5074537;28;20044;-63
2022/10/23 01:29:01;;;;;;;10.45;3.05;;;15.10;99.90;;;;;;5073201;28;20048;-62
2022/10/23 01:31:28;;;;;;;12.98;3.20;;;15.10;99.90;;;;;;5073793;28;20494;-62
2022/10/23 01:33:55;;;;;;;14.93;3.50;;;15.10;99.90;;;;;;5073574;28;20503;-62
2022/10/23 01:36:25;;;;;;;13.52;3.72;;;15.20;99.90;;;;;;5073749;28;20044;-60
2022/10/23 01:38:55;;;;;;;14.00;3.70;;;15.20;99.90;;;;;;5073046;28;20044;-62
2022/10/23 01:41:23;;;;;;;13.35;3.45;;;15.20;99.90;;;;;;5073068;28;20166;-63
2022/10/23 01:43:49;;;;;;;13.38;3.80;;;15.20;99.90;;;;;;5074978;28;20040;-62
2022/10/23 01:46:16;;;;;;;11.32;2.85;;;15.20;99.90;;;;;;5073301;28;20051;-63
2022/10/23 01:48:43;;;;;;;9.98;3.30;;;15.20;99.90;;;;;;5074335;28;20124;-63
2022/10/23 01:51:10;;;;;;;10.60;3.17;;;15.20;99.90;;;;;;5073079;28;20040;-62
2022/10/23 01:53:37;;;;;;;13.63;3.67;;;15.20;99.90;;;;;;5074176;28;20047;-62
2022/10/23 01:56:05;;;;;;;12.57;3.55;;;15.20;99.90;;;;;;5072883;28;20041;-61
2022/10/23 01:58:32;;;;;;;15.68;3.72;;;15.20;99.90;;;;;;5072754;28;20048;-63
2022/10/23 02:00:58;;;;;;;12.80;3.63;;;15.20;99.90;;;;;;5056214;28;20048;-61
2022/10/23 02:03:25;;;;;;;14.50;3.67;;;15.20;99.90;;;;;;5074086;28;20052;-62
2022/10/23 02:05:52;;;;;;;15.45;3.42;;;15.20;99.90;;;;;;5074008;28;20049;-62
2022/10/23 02:08:19;;;;;;;14.98;3.28;;;15.20;99.90;;;;;;5072647;28;20482;-62
2022/10/23 02:10:46;;;;;;;14.13;3.80;;;15.20;99.90;;;;;;5072490;28;20047;-63
2022/10/23 02:13:14;;;;;;;16.10;3.80;;;15.20;99.90;;;;;;5072647;28;20080;-62
2022/10/23 02:15:41;;;;;;;12.93;3.80;;;15.20;99.90;;;;;;5072896;28;20472;-63
2022/10/23 02:18:08;;;;;;;11.45;3.70;;;15.20;99.90;;;;;;5072515;28;20075;-63
2022/10/23 02:20:35;;;;;;;11.88;3.47;;;15.20;99.90;;;;;;5073152;28;20094;-61
2022/10/23 02:23:02;;;;;;;14.55;3.58;;;15.20;99.90;;;;;;5072536;28;20059;-61
2022/10/23 02:25:29;;;;;;;14.63;4.20;;;15.20;99.90;;;;;;5072617;28;20044;-62
2022/10/23 02:27:56;;;;;;;14.40;4.85;;;15.20;99.90;;;;;;5072398;28;20198;-62
2022/10/23 02:30:29;;;;;;;14.07;3.35;;;15.20;99.90;;;;;;5072382;28;20075;-60
2022/10/23 02:33:06;;;;;;;14.43;3.88;;;15.20;99.90;;;;;;5072367;28;20041;-61
2022/10/23 02:35:33;;;;;;;9.63;3.50;;;15.20;99.90;;;;;;5071743;28;20041;-62
2022/10/23 02:38:09;;;;;;;11.40;3.55;;;15.20;99.90;;;;;;5056747;28;20043;-63
2022/10/23 02:40:36;;;;;;;13.50;4.47;;;15.20;99.90;;;;;;5073521;28;20060;-62
2022/10/23 02:43:03;;;;;;;9.25;3.67;;;15.20;99.90;;;;;;5073981;28;20048;-62
2022/10/23 02:45:30;;;;;;;13.10;3.70;;;15.20;99.90;;;;;;5071880;28;20381;-61
2022/10/23 02:47:57;;;;;;;12.73;3.97;;;15.20;99.90;;;;;;5072423;28;20476;-61
2022/10/23 02:50:23;;;;;;;14.63;3.95;;;15.20;99.90;;;;;;5073310;28;20101;-62
2022/10/23 02:52:50;;;;;;;12.68;3.38;;;15.20;99.90;;;;;;5071947;28;20047;-63
2022/10/23 02:55:17;;;;;;;9.90;3.40;;;15.20;99.90;;;;;;5073751;28;20037;-63
2022/10/23 02:57:47;;;;;;;10.40;3.88;;;15.20;99.90;;;;;;5072061;28;20040;-61
2022/10/23 03:00:13;;;;;;;10.85;3.67;;;15.20;99.90;;;;;;5071964;28;20500;-63
2022/10/23 03:02:40;;;;;;;12.82;3.97;;;15.20;99.90;;;;;;5072044;28;20480;-61
2022/10/23 03:05:07;;;;;;;12.00;3.67;;;15.20;99.90;;;;;;5071733;28;20050;-61
2022/10/23 03:07:34;;;;;;;11.65;3.33;;;15.20;99.90;;;;;;5071832;28;20453;-62
2022/10/23 03:10:04;;;;;;;12.25;2.92;;;15.20;99.90;;;;;;5071874;28;20048;-63
2022/10/23 03:12:31;;;;;;;16.02;3.45;;;15.20;99.90;;;;;;5071955;28;20082;-62
2022/10/23 03:14:58;;;;;;;14.57;3.53;;;15.20;99.90;;;;;;5073214;28;20036;-61
2022/10/23 03:17:25;;;;;;;9.85;3.13;;;15.20;99.90;;;;;;5072993;28;20032;-60
2022/10/23 03:19:56;;;;;;;11.45;3.22;;;15.20;99.90;;;;;;5071985;28;20036;-62
2022/10/23 03:22:22;;;;;;;11.00;3.10;;;15.20;99.90;;;;;;5071982;28;20442;-63
2022/10/23 03:24:49;;;;;;;11.68;3.28;;;15.20;99.90;;;;;;5071656;28;20048;-64
2022/10/23 03:27:16;;;;;;;14.70;3.42;;;15.20;99.90;;;;;;5072874;28;20040;-63
2022/10/23 03:29:43;;;;;;;10.18;3.13;;;15.20;99.90;;;;;;5073299;28;20429;-63
2022/10/23 03:32:09;;;;;;;15.10;3.28;;;15.20;99.90;;;;;;5071623;28;20044;-62
2022/10/23 03:34:36;;;;;;;11.88;2.70;;;15.20;99.90;;;;;;5072885;28;20072;-63
2022/10/23 03:37:03;;;;;;;15.38;2.95;;;15.20;99.90;;;;;;5073073;28;20260;-63
2022/10/23 03:39:30;;;;;;;12.45;2.85;;;15.20;99.90;;;;;;5072806;28;20541;-64
2022/10/23 03:41:57;;;;;;;8.93;2.60;;;15.20;99.90;;;;;;5071998;28;20052;-62
2022/10/23 03:44:23;;;;;;;11.07;2.90;;;15.20;99.90;;;;;;5071750;28;20102;-60
2022/10/23 03:46:50;;;;;;;9.68;2.83;;;15.20;99.90;;;;;;5071833;28;20102;-61
2022/10/23 03:49:17;;;;;;;9.02;3.05;;;15.20;99.90;;;;;;5075121;28;20102;-61
2022/10/23 03:51:50;;;;;;;11.57;2.80;;;15.20;99.90;;;;;;5076350;28;20041;-61
2022/10/23 03:54:19;;;;;;;9.90;2.47;;;15.20;99.90;;;;;;5074997;28;20136;-61
2022/10/23 03:56:46;;;;;;;12.40;2.70;;;15.20;99.90;;;;;;5075227;28;20033;-61
2022/10/23 03:59:13;;;;;;;13.68;2.95;;;15.20;99.90;;;;;;5076840;28;20124;-61
2022/10/23 04:01:39;;;;;;;12.07;2.90;;;15.20;99.90;;;;;;5076172;28;20048;-62
2022/10/23 04:04:06;;;;;;;12.55;2.67;;;15.20;99.90;;;;;;5074898;28;20063;-59
2022/10/23 04:06:35;;;;;;;13.88;3.00;;;15.20;99.90;;;;;;5058735;28;20057;-60
2022/10/23 04:09:03;;;;;;;9.77;2.60;;;15.20;99.90;;;;;;5074720;28;20456;-62
2022/10/23 04:11:30;;;;;;;8.90;2.53;;;15.20;99.90;;;;;;5074850;28;20373;-61
2022/10/23 04:13:57;;;;;;;10.10;2.65;;;15.20;99.90;;;;;;5075063;28;20040;-60
2022/10/23 04:16:24;;;;;;;10.07;2.50;;;15.30;99.90;;;;;;5075174;28;20510;-61
2022/10/23 04:18:50;;;;;;;14.68;3.05;;;15.30;99.90;;;;;;5075254;28;20113;-61
2022/10/23 04:21:17;;;;;;;13.98;2.85;;;15.30;99.90;;;;;;5075117;28;20488;-61
2022/10/23 04:23:44;;;;;;;11.18;2.85;;;15.30;99.90;;;;;;5074402;28;20041;-60
2022/10/23 04:26:13;;;;;;;10.60;2.50;;;15.30;99.90;;;;;;5074655;28;20068;-61
2022/10/23 04:28:40;;;;;;;12.57;2.70;;;15.30;99.90;;;;;;5074355;28;20044;-60
2022/10/23 04:31:07;;;;;;;8.38;2.55;;;15.30;99.90;;;;;;5074397;28;20044;-63
2022/10/23 04:33:33;;;;;;;10.50;2.83;;;15.30;99.90;;;;;;5075963;28;20032;-63
2022/10/23 04:36:00;;;;;;;13.30;2.95;;;15.20;99.90;;;;;;5076574;28;20064;-60
2022/10/23 04:38:27;;;;;;;8.98;2.53;;;15.30;99.90;;;;;;5074377;28;20037;-62
2022/10/23 04:40:54;;;;;;;10.52;2.33;;;15.30;99.90;;;;;;5074242;28;20097;-62
2022/10/23 04:43:21;;;;;;;8.43;2.22;;;15.30;99.90;;;;;;5074316;28;20139;-61
2022/10/23 04:45:48;;;;;;;7.70;2.67;;;15.30;99.90;;;;;;5074569;28;20487;-60
2022/10/23 04:48:15;;;;;;;7.97;2.30;;;15.30;99.90;;;;;;5074168;28;20477;-62
2022/10/23 04:51:10;;;;;;;8.13;2.40;;;15.20;99.90;;;;;;5073298;28;20045;-61
2022/10/23 04:53:56;;;;;;;9.07;2.15;;;15.30;99.90;;;;;;5075767;28;20083;-60
2022/10/23 04:56:45;;;;;;;12.32;2.33;;;15.20;99.90;;;;;;5075874;28;20076;-62
2022/10/23 04:59:17;;;;;;;9.15;2.28;;;15.20;99.90;;;;;;5073235;28;20045;-60
2022/10/23 05:01:45;;;;;;;9.20;2.58;;;15.20;99.90;;;;;;5073868;28;20412;-61
2022/10/23 05:04:12;;;;;;;8.80;2.20;;;15.20;99.90;;;;;;5057363;28;20090;-62
2022/10/23 05:06:59;;;;;;;6.72;2.10;;;15.30;99.90;;;;;;5074785;28;20048;-61
2022/10/23 05:09:55;;;;;;;10.00;2.65;;;15.30;99.90;;;;;;5074432;28;20045;-61
2022/10/23 05:12:30;;;;;;;10.30;2.38;;;15.40;99.90;;;;;;5074009;28;20040;-62
2022/10/23 05:14:57;;;;;;;7.40;2.28;;;15.40;99.90;;;;;;5073591;28;20127;-63
2022/10/23 05:17:23;;;;;;;9.00;2.13;;;15.40;99.90;;;;;;5073672;28;20041;-63
2022/10/23 05:19:50;;;;;;;7.30;2.05;;;15.40;99.90;;;;;;5074903;28;20520;-61
2022/10/23 05:22:17;;;;;;;11.45;2.00;;;15.40;99.90;;;;;;5073382;28;20098;-61
2022/10/23 05:24:50;;;;;;;7.50;2.08;;;15.50;99.90;;;;;;5073945;28;20053;-60
2022/10/23 05:27:22;;;;;;;9.52;2.00;;;15.50;99.90;;;;;;5073532;28;20041;-62
2022/10/23 05:29:50;;;;;;;11.00;2.05;;;15.50;99.90;;;;;;5073855;28;20054;-62
2022/10/23 05:32:20;;;;;;;7.50;2.30;;;15.50;99.90;;;;;;5073924;28;20395;-61
2022/10/23 05:34:52;;;;;;;9.43;2.10;;;15.50;99.90;;;;;;5073501;28;20041;-62
2022/10/23 05:37:19;;;;;;;6.75;1.67;;;15.50;99.90;;;;;;5073179;28;20040;-61
2022/10/23 05:39:46;;;;;;;11.18;2.10;;;15.50;99.90;;;;;;5073586;28;20476;-62
2022/10/23 05:42:15;;;;;;;9.48;2.00;;;15.60;99.90;;;;;;5073603;28;20059;-61
2022/10/23 05:44:42;;;;;;;7.93;1.95;;;15.60;99.90;;;;;;5074544;28;20056;-62
2022/10/23 05:47:17;;;;;;;8.10;1.85;;;15.60;99.90;;;;;;5074581;28;20057;-61
2022/10/23 05:49:52;;;;;;;6.45;1.88;;;15.60;99.90;;;;;;5073417;28;20056;-61
2022/10/23 05:52:45;;;;;;;6.22;2.00;;;15.60;99.90;;;;;;5073756;28;20048;-62
2022/10/23 05:55:28;;;;;;;10.73;2.33;;;15.60;99.90;;;;;;5072841;28;20047;-61
2022/10/23 05:58:02;;;;;;;9.90;2.38;;;15.60;99.90;;;;;;5057640;28;20080;-61
2022/10/23 06:00:55;;;;;;;6.25;2.00;;;15.60;99.90;;;;;;5073504;28;20074;-62
2022/10/23 06:03:54;;;;;;;6.28;2.03;;;15.60;99.90;;;;;;5073632;28;20053;-61
2022/10/23 06:06:28;;;;;;;7.85;1.95;;;15.60;99.90;;;;;;5072589;28;20462;-61
2022/10/23 06:08:55;;;;;;;6.63;1.80;;;15.60;99.90;;;;;;5073838;28;20040;-60
2022/10/23 06:11:22;;;;;;;7.30;2.05;;;15.60;99.90;;;;;;5073045;28;20226;-61
2022/10/23 06:13:59;;;;;;;5.35;1.67;;;15.60;99.90;;;;;;5072436;28;20052;-60
2022/10/23 06:16:26;;;;;;;6.22;1.83;;;15.60;99.90;;;;;;5072668;28;20419;-61
2022/10/23 06:18:53;;;;;;;7.13;1.88;;;15.60;99.90;;;;;;5072750;28;20047;-60
2022/10/23 06:21:20;;;;;;;8.65;1.80;;;15.60;99.90;;;;;;5073835;28;20082;-61
2022/10/23 06:23:49;;;;;;;9.85;1.80;;;15.60;99.90;;;;;;5072813;28;20094;-64
2022/10/23 06:26:38;;;;;;;5.70;2.00;;;15.60;99.90;;;;;;5073027;28;20083;-63
2022/10/23 06:29:14;;;;;;;6.85;1.67;;;15.60;99.90;;;;;;5072295;28;20049;-61
2022/10/23 06:31:42;;;;;;;6.85;2.00;;;15.60;99.90;;;;;;5072589;28;20072;-61
2022/10/23 06:34:09;;;;;;;6.65;1.83;;;15.60;99.90;;;;;;5073524;28;20044;-62
2022/10/23 06:36:36;;;;;;;5.43;2.15;;;15.60;99.90;;;;;;5072356;28;20040;-60
2022/10/23 06:39:26;;;;;;;7.70;2.03;;;15.60;99.90;;;;;;5070581;28;20045;-60
2022/10/23 06:42:17;;;;;;;5.90;2.15;;;15.70;99.90;;;;;;5073693;28;20082;-61
2022/10/23 06:44:53;;;;;;;;;;;15.70;99.90;;;;;;5073891;28;20565;-59
2022/10/23 06:47:38;;;;;;;10.45;2.47;;;15.70;99.90;;;;;;5073549;28;19927;-62
2022/10/23 06:50:24;;;;;;;7.75;2.10;;;15.60;99.90;;;;;;5074391;28;20055;-62
2022/10/23 06:52:51;;;;;;;12.70;2.10;;;15.60;99.90;;;;;;5072523;28;20055;-60
2022/10/23 06:55:20;;;;;;;6.28;1.63;;;15.60;99.90;;;;;;5073213;28;20036;-60
2022/10/23 06:57:47;;;;;;;11.40;2.10;;;15.50;99.90;;;;;;5071926;28;20041;-61
2022/10/23 07:00:13;;;;;;;9.63;2.17;;;15.50;99.90;;;;;;5071849;28;20048;-61
2022/10/23 07:02:50;;;;;;;7.70;1.98;;;15.50;99.90;;;;;;5072343;28;20051;-61
2022/10/23 07:05:17;;;;;;;7.93;2.05;;;15.40;99.90;;;;;;5071770;28;20048;-60
2022/10/23 07:07:44;;;;;;;10.55;2.20;;;15.40;99.90;;;;;;5072095;28;20143;-61
2022/10/23 07:10:14;;;;;;;7.75;2.55;;;15.40;99.90;;;;;;5072008;28;20523;-60
2022/10/23 07:12:50;;;;;;;5.88;2.33;;;15.40;99.90;;;;;;5071864;28;20044;-60
2022/10/23 07:15:45;;;;;;;10.68;2.03;;;15.40;99.90;;;;;;5072630;28;20399;-62
2022/10/23 07:18:18;;;;;;;5.95;1.75;;;15.40;99.90;;;;;;5071885;28;20373;-60
2022/10/23 07:21:11;;;;;;;6.80;1.90;;;15.40;99.90;;;;;;5064864;28;20109;-63
2022/10/23 07:23:39;;;;;;;8.65;3.13;;;15.40;99.90;;;;;;5074423;28;20055;-61
2022/10/23 07:26:06;;;;;;;5.93;2.17;;;15.40;99.90;;;;;;5075873;28;20048;-61
2022/10/23 07:28:33;;;;;;;8.70;2.40;;;15.40;99.90;;;;;;5075909;28;20510;-61
2022/10/23 07:31:00;;;;;;;7.28;2.30;;;15.40;99.90;;;;;;5076856;28;20480;-62
2022/10/23 07:33:46;;;;;;;8.43;2.17;;;15.40;99.90;;;;;;5076724;28;20060;-60
2022/10/23 07:36:17;;;;;;;4.80;1.88;;;15.40;99.90;;;;;;5075794;28;20044;-63
2022/10/23 07:38:43;;;;;;;7.43;1.98;;;15.40;99.90;;;;;;5075318;28;20040;-62
2022/10/23 07:41:10;;;;;;;5.82;2.10;;;15.40;99.90;;;;;;5076214;28;20036;-61
2022/10/23 07:43:38;;;;;;;9.80;2.22;;;15.40;99.90;;;;;;5076322;28;20051;-63
2022/10/23 07:46:07;;;;;;;8.82;2.75;;;15.40;99.90;;;;;;5075227;28;20560;-62
2022/10/23 07:48:37;;;;;;;7.65;2.35;;;15.50;99.90;;;;;;5075375;28;20040;-62
2022/10/23 07:51:07;;;;;;;9.60;2.55;;;15.50;99.90;;;;;;5075347;28;20048;-62
2022/10/23 07:53:37;;;;;;;7.07;2.35;;;15.50;99.90;;;;;;5075965;28;20075;-62
2022/10/23 07:56:12;;;;;;;8.48;1.90;;;15.50;99.90;;;;;;5075351;28;20048;-62
2022/10/23 07:59:09;;;;;;;9.45;2.00;;;15.60;99.90;;;;;;5075888;28;20097;-62
2022/10/23 08:01:36;;;;;;;9.02;2.20;;;15.50;99.90;;;;;;5075409;28;20472;-64
2022/10/23 08:04:03;;;;;;;9.57;2.60;;;15.60;99.90;;;;;;5075285;28;20495;-62
2022/10/23 08:06:31;;;;;;;9.63;2.33;;;15.60;99.90;;;;;;5075539;28;20587;-60
2022/10/23 08:08:57;;;;;;;10.60;2.58;;;15.60;99.90;;;;;;5075623;28;20041;-62
2022/10/23 08:11:34;;;;;;;10.00;2.33;;;15.70;99.90;;;;;;5075280;28;20064;-61
2022/10/23 08:14:07;;;;;;;10.02;2.50;;;15.70;99.90;;;;;;5075202;28;20075;-62
2022/10/23 08:16:34;;;;;;;9.73;2.33;;;15.70;99.90;;;;;;5074918;28;20055;-61
2022/10/23 08:19:12;;;;;;;14.00;2.72;;;15.80;99.90;;;;;;5076257;28;20044;-62
2022/10/23 08:21:40;;;;;;;6.85;2.15;;;15.80;99.90;;;;;;5074757;28;20062;-61
2022/10/23 08:24:13;;;;;;;10.70;2.78;;;15.80;99.90;;;;;;5074825;28;20141;-61
2022/10/23 08:26:43;;;;;;;7.95;2.55;;;15.90;99.90;;;;;;5074718;28;20048;-62
2022/10/23 08:29:11;;;;;;;9.80;2.63;;;15.90;99.90;;;;;;5074621;28;20045;-62
2022/10/23 08:31:39;;;;;;;7.82;2.42;;;15.90;99.90;;;;;;5074608;28;20500;-60
2022/10/23 08:34:23;;;;;;;9.50;2.72;;;15.90;99.90;;;;;;5074747;28;20052;-61
2022/10/23 08:36:51;;;;;;;9.95;2.35;;;15.90;99.90;;;;;;5074659;28;20091;-62
2022/10/23 08:39:18;;;;;;;9.77;2.25;;;16.00;99.90;;;;;;5074316;28;20047;-62
2022/10/23 08:42:08;;;;;;;9.65;3.05;;;16.00;99.90;;;;;;5075106;28;20056;-65
2022/10/23 08:44:39;;;;;;;11.05;2.50;;;15.90;99.90;;;;;;5074394;28;20044;-63
2022/10/23 08:47:06;;;;;;;10.90;2.67;;;15.90;99.90;;;;;;5074489;28;20052;-62
2022/10/23 08:49:39;;;;;;;11.77;2.45;;;15.90;99.90;;;;;;5076138;28;20495;-62
2022/10/23 08:52:05;;;;;;;7.63;2.30;;;15.90;99.90;;;;;;5074732;28;20040;-61
2022/10/23 08:54:37;;;;;;;12.20;3.08;;;15.90;99.90;;;;;;5074100;28;20055;-63
2022/10/23 08:57:03;;;;;;;11.43;3.00;;;15.90;99.90;;;;;;5075378;28;20123;-62
2022/10/23 08:59:31;;;;;;;14.95;3.97;;;15.90;99.90;;;;;;5075233;28;20041;-62
2022/10/23 09:01:58;;;;;;;10.93;2.83;;;15.90;99.90;;;;;;5075169;28;20036;-61
2022/10/23 09:04:25;;;;;;;11.02;2.83;;;15.90;99.90;;;;;;5073742;28;20049;-62
2022/10/23 09:06:52;;;;;;;12.20;2.67;;;15.90;99.90;;;;;;5075531;28;20605;-63
2022/10/23 09:09:19;;;;;;;9.82;2.83;;;15.90;99.90;;;;;;5075240;28;20090;-64
2022/10/23 09:11:46;;;;;;;9.82;2.80;;;15.90;99.90;;;;;;5075262;28;20041;-61
2022/10/23 09:14:12;;;;;;;9.20;2.50;;;15.90;99.90;;;;;;5075456;28;20058;-61
2022/10/23 09:16:39;;;;;;;10.10;3.00;;;15.90;99.90;;;;;;5075300;28;20037;-61
2022/10/23 09:19:06;;;;;;;6.82;2.40;;;16.00;99.90;;;;;;5075655;28;20413;-62
2022/10/23 09:21:37;;;;;;;8.13;2.20;;;16.00;99.90;;;;;;5075286;28;20032;-61
2022/10/23 09:24:04;;;;;;;11.20;2.75;;;16.00;99.90;;;;;;5073291;28;20498;-63
2022/10/23 09:26:31;;;;;;;11.52;2.75;;;16.10;99.90;;;;;;5073733;28;20048;-64
2022/10/23 09:28:57;;;;;;;10.30;2.53;;;16.10;99.90;;;;;;5075045;28;20044;-63
2022/10/23 09:31:24;;;;;;;8.98;2.83;;;16.20;99.90;;;;;;5075058;28;20131;-63
2022/10/23 09:33:51;;;;;;;5.32;2.30;;;16.20;99.90;;;;;;5073684;28;20052;-61
2022/10/23 09:36:18;;;;;;;8.93;2.80;;;16.20;99.90;;;;;;5074715;28;20094;-62
2022/10/23 09:38:44;;;;;;;8.43;2.20;;;16.20;99.90;;;;;;5073176;28;20143;-61
2022/10/23 09:41:11;;;;;;;7.50;2.40;;;16.30;99.90;;;;;;5074492;28;20029;-63
2022/10/23 09:43:38;;;;;;;4.70;2.08;;;16.30;99.90;;;;;;5074628;28;20040;-64
2022/10/23 09:46:08;;;;;;;7.57;2.30;;;16.30;99.90;;;;;;5073147;28;20059;-61
2022/10/23 09:48:36;;;;;;;6.38;2.13;;;16.40;99.90;;;;;;5073451;28;20506;-62
2022/10/23 09:51:03;;;;;;;5.47;1.85;;;16.40;99.90;;;;;;5074585;28;20049;-64
2022/10/23 09:53:33;;;;;;;5.22;2.15;;;16.40;99.90;;;;;;5074054;28;20037;-66
2022/10/23 09:55:59;;;;;;;5.40;1.80;;;16.50;99.90;;;;;;5074629;28;20067;-64
2022/10/23 09:58:26;;;;;;;6.07;2.20;;;16.50;99.90;;;;;;5074498;28;20028;-64
2022/10/23 10:00:53;;;;;;;6.63;2.13;;;16.50;99.90;;;;;;5073008;28;20077;-62
2022/10/23 10:03:37;;;;;;;5.57;2.15;;;16.60;99.90;;;;;;5072770;28;20044;-64
2022/10/23 10:06:08;;;;;;;6.15;1.83;;;16.60;99.90;;;;;;5073122;28;20056;-62
2022/10/23 10:08:35;;;;;;;5.38;2.25;;;16.70;99.90;;;;;;5074157;28;20078;-63
2022/10/23 10:11:02;;;;;;;4.32;1.70;;;16.70;99.90;;;;;;5074317;28;20484;-64
2022/10/23 10:13:29;;;;;;;5.88;2.20;;;16.70;99.90;;;;;;5073627;28;20529;-62
2022/10/23 10:15:55;;;;;;;6.70;2.42;;;16.70;99.90;;;;;;5072451;28;20482;-62
2022/10/23 10:18:22;;;;;;;5.55;2.30;;;16.70;99.90;;;;;;5074138;28;20036;-64
2022/10/23 10:20:49;;;;;;;5.93;2.03;;;16.70;99.90;;;;;;5073946;28;20113;-63
2022/10/23 10:23:15;;;;;;;19.30;11.15;;;16.70;99.90;;;;;;5073740;28;20089;-64
2022/10/23 10:25:42;;;;;;;16.95;9.52;;;16.70;99.90;;;;;;5073785;28;20435;-64
2022/10/23 10:28:09;;;;;;;22.73;14.50;;;16.70;99.90;;;;;;5074003;28;20044;-64
2022/10/23 10:30:35;;;;;;;10.30;4.10;;;16.60;99.90;;;;;;5073806;28;20056;-63
2022/10/23 10:33:02;;;;;;;7.50;2.78;;;16.60;99.90;;;;;;5073705;28;20067;-65
2022/10/23 10:35:29;;;;;;;7.55;2.42;;;16.50;99.90;;;;;;5073383;28;20127;-65
2022/10/23 10:37:56;;;;;;;7.15;2.33;;;16.50;99.90;;;;;;5072127;28;20495;-61
2022/10/23 10:40:22;;;;;;;6.60;2.33;;;16.50;99.90;;;;;;5073609;28;20488;-65
2022/10/23 10:42:49;;;;;;;17.08;8.68;;;16.50;99.90;;;;;;5073853;28;20533;-62
2022/10/23 10:45:16;;;;;;;18.80;9.43;;;16.50;99.90;;;;;;5074283;28;20433;-64
2022/10/23 10:47:43;;;;;;;18.65;9.85;;;16.50;99.90;;;;;;5074069;28;20096;-63
2022/10/23 10:50:16;;;;;;;11.90;6.50;;;16.60;99.90;;;;;;5073211;28;20396;-64
2022/10/23 10:53:01;;;;;;;8.38;3.70;;;16.60;99.90;;;;;;5073448;28;20132;-62
2022/10/23 10:55:27;;;;;;;7.10;2.88;;;16.70;99.90;;;;;;5073337;28;20041;-64
2022/10/23 10:57:54;;;;;;;6.13;1.52;;;16.80;99.90;;;;;;5075162;28;20036;-61
2022/10/23 11:00:25;;;;;;;5.75;1.73;;;16.90;99.90;;;;;;5077645;28;20123;-61
2022/10/23 11:02:52;;;;;;;4.80;1.65;;;17.00;99.90;;;;;;5077325;28;20040;-63
2022/10/23 11:05:18;;;;;;;4.97;1.50;;;17.10;99.90;;;;;;5077773;28;20051;-62
2022/10/23 11:07:45;;;;;;;5.35;1.50;;;17.20;99.90;;;;;;5077506;28;20070;-62
2022/10/23 11:10:13;;;;;;;6.75;1.77;;;17.30;99.90;;;;;;5076156;28;20064;-63
2022/10/23 11:12:40;;;;;;;9.00;2.50;;;17.40;99.90;;;;;;5077082;28;20070;-61
2022/10/23 11:15:06;;;;;;;6.65;3.08;;;17.40;99.90;;;;;;5077468;28;20033;-62
2022/10/23 11:17:33;;;;;;;7.93;3.00;;;17.40;99.90;;;;;;5077515;28;20449;-63
2022/10/23 11:20:00;;;;;;;9.32;3.60;;;17.50;99.90;;;;;;5077568;28;20048;-62
2022/10/23 11:22:26;;;;;;;12.25;6.95;;;17.50;99.90;;;;;;5077143;28;20071;-63
2022/10/23 11:24:53;;;;;;;17.55;13.05;;;17.60;99.90;;;;;;5076974;28;20047;-62
2022/10/23 11:27:23;;;;;;;10.15;5.70;;;17.70;99.90;;;;;;5077163;28;20067;-63
2022/10/23 11:29:50;;;;;;;8.35;3.65;;;17.70;99.90;;;;;;5077361;28;20040;-63
2022/10/23 11:32:17;;;;;;;9.23;3.25;;;17.70;99.90;;;;;;5075807;28;20123;-64
2022/10/23 11:34:44;;;;;;;8.38;3.47;;;17.80;99.90;;;;;;5076987;28;20052;-62
2022/10/23 11:37:10;;;;;;;9.55;3.05;;;17.80;99.90;;;;;;5076682;28;20403;-61
2022/10/23 11:39:37;;;;;;;9.32;2.40;;;17.90;99.90;;;;;;5076673;28;20163;-61
2022/10/23 11:42:10;;;;;;;9.18;2.50;;;17.90;99.90;;;;;;5075585;28;20045;-64
2022/10/23 11:44:36;;;;;;;9.05;2.47;;;18.00;99.90;;;;;;5076751;28;20049;-62
2022/10/23 11:47:03;;;;;;;9.05;3.03;;;18.10;99.90;;;;;;5077168;28;20044;-62
2022/10/23 11:49:30;;;;;;;10.18;3.83;;;18.10;99.90;;;;;;5076413;28;20492;-62
2022/10/23 11:51:56;;;;;;;9.38;3.05;;;18.10;99.90;;;;;;5076875;28;20055;-63
2022/10/23 11:54:24;;;;;;;12.57;3.17;;;18.10;99.90;;;;;;5074995;28;20041;-63
2022/10/23 11:56:51;;;;;;;12.60;2.70;;;18.20;99.90;;;;;;5076419;28;20041;-63
2022/10/23 11:59:18;;;;;;;13.23;2.60;;;18.20;99.90;;;;;;5076650;28;20041;-63
2022/10/23 12:01:45;;;;;;;12.93;2.40;;;18.30;99.90;;;;;;5076957;28;20037;-64
2022/10/23 12:04:12;;;;;;;10.75;2.40;;;18.30;99.90;;;;;;5075645;28;20506;-68
2022/10/23 12:06:38;;;;;;;9.80;2.90;;;18.40;99.90;;;;;;5076003;28;20514;-62
2022/10/23 12:09:05;;;;;;;10.18;2.65;;;18.40;99.90;;;;;;5076168;28;20095;-65
2022/10/23 12:11:32;;;;;;;12.43;2.70;;;18.40;99.90;;;;;;5076610;28;20162;-65
2022/10/23 12:13:59;;;;;;;11.10;2.65;;;18.40;99.90;;;;;;5076462;28;20499;-65
2022/10/23 12:16:26;;;;;;;12.70;2.33;;;18.50;99.90;;;;;;5076138;28;20048;-66
2022/10/23 12:18:52;;;;;;;14.98;3.35;;;18.50;99.90;;;;;;5076132;28;20090;-63
2022/10/23 12:21:27;;;;;;;10.43;2.47;;;18.60;99.90;;;;;;5075259;28;20037;-65
2022/10/23 12:23:54;;;;;;;11.60;2.58;;;18.70;99.90;;;;;;5076179;28;20055;-63
2022/10/23 12:26:20;;;;;;;9.52;2.30;;;18.70;99.90;;;;;;5076001;28;20424;-64
2022/10/23 12:28:48;;;;;;;9.18;2.22;;;18.70;99.90;;;;;;5074764;28;20048;-63
2022/10/23 12:31:15;;;;;;;6.00;1.90;;;18.70;99.90;;;;;;5076560;28;20434;-65
2022/10/23 12:33:42;;;;;;;9.30;2.40;;;18.70;99.90;;;;;;5075808;28;20036;-64
2022/10/23 12:36:08;;;;;;;13.20;2.70;;;18.70;99.90;;;;;;5075748;28;20098;-64
2022/10/23 12:38:35;;;;;;;10.40;2.60;;;18.70;99.90;;;;;;5075703;28;20591;-64
2022/10/23 12:41:03;;;;;;;10.00;2.60;;;18.70;99.90;;;;;;5075993;28;20032;-64
2022/10/23 12:43:30;;;;;;;12.32;2.35;;;18.60;99.90;;;;;;5076151;28;20094;-61
2022/10/23 12:45:57;;;;;;;10.57;2.22;;;18.50;99.90;;;;;;5075833;28;20044;-63
2022/10/23 12:48:23;;;;;;;9.73;2.90;;;18.50;99.90;;;;;;5075515;28;20049;-65
2022/10/23 12:50:50;;;;;;;9.00;2.80;;;18.50;99.90;;;;;;5075635;28;20443;-63
2022/10/23 12:53:17;;;;;;;9.43;3.08;;;18.60;99.90;;;;;;5075916;28;20372;-66